createdAt,value
2023-04-03T00:02:34.177Z,6.97
2023-04-03T00:05:36.645Z,7.20
2023-04-03T00:08:40.228Z,7.83
2023-04-03T00:11:42.183Z,7.10
2023-04-03T00:14:44.086Z,7.30
2023-04-03T00:17:46.945Z,7.00
2023-04-03T00:20:49.262Z,6.90
2023-04-03T00:23:51.791Z,6.83
2023-04-03T00:26:53.651Z,6.57
2023-04-03T00:29:55.715Z,7.87
2023-04-03T00:32:57.918Z,6.97
2023-04-03T00:36:00.198Z,8.00
2023-04-03T00:39:02.192Z,7.10
2023-04-03T00:42:04.207Z,8.30
2023-04-03T00:45:05.993Z,7.10
2023-04-03T00:48:10.134Z,6.93
2023-04-03T00:51:19.219Z,7.43
2023-04-03T00:54:21.979Z,7.57
2023-04-03T00:57:24.301Z,7.23
2023-04-03T01:00:26.698Z,6.77
2023-04-03T01:03:28.655Z,7.30
2023-04-03T01:06:35.870Z,6.50
2023-04-03T01:09:38.823Z,6.20
2023-04-03T01:12:46.705Z,6.03
2023-04-03T01:15:49.306Z,6.37
2023-04-03T01:18:52.098Z,6.37
2023-04-03T01:22:27.785Z,6.23
2023-04-03T01:25:30.001Z,6.17
2023-04-03T01:28:36.687Z,7.43
2023-04-03T01:31:49.314Z,5.80
2023-04-03T01:34:51.266Z,5.70
2023-04-03T01:37:53.382Z,5.77
2023-04-03T01:40:55.438Z,6.13
2023-04-03T01:43:57.358Z,6.27
2023-04-03T01:46:59.317Z,5.90
2023-04-03T01:50:01.430Z,5.60
2023-04-03T01:53:03.292Z,5.97
2023-04-03T01:56:06.049Z,5.37
2023-04-03T01:59:07.944Z,5.50
2023-04-03T02:02:10.103Z,5.60
2023-04-03T02:05:12.052Z,5.07
2023-04-03T02:08:14.495Z,6.30
2023-04-03T02:11:16.586Z,5.23
2023-04-03T02:14:18.640Z,5.70
2023-04-03T02:17:20.686Z,5.53
2023-04-03T02:20:23.390Z,4.67
2023-04-03T02:23:25.485Z,5.20
2023-04-03T02:26:28.216Z,5.27
2023-04-03T02:29:30.144Z,4.93
2023-04-03T02:32:32.620Z,4.80
2023-04-03T02:35:34.610Z,5.23
2023-04-03T02:38:37.188Z,6.13
2023-04-03T02:41:39.131Z,5.10
2023-04-03T02:44:41.668Z,5.20
2023-04-03T02:47:43.717Z,5.37
2023-04-03T02:50:45.727Z,5.87
2023-04-03T02:53:47.812Z,5.27
2023-04-03T02:56:50.883Z,5.07
2023-04-03T02:59:52.837Z,5.90
2023-04-03T03:02:54.846Z,5.20
2023-04-03T03:06:11.061Z,5.47
2023-04-03T03:09:14.353Z,5.00
2023-04-03T03:12:16.665Z,5.17
2023-04-03T03:15:20.809Z,5.70
2023-04-03T03:18:22.991Z,5.73
2023-04-03T03:21:25.072Z,6.23
2023-04-03T03:24:27.567Z,5.43
2023-04-03T03:27:30.086Z,5.10
2023-04-03T03:30:32.038Z,5.80
2023-04-03T03:33:34.385Z,5.70
2023-04-03T03:36:36.827Z,6.33
2023-04-03T03:39:38.781Z,6.27
2023-04-03T03:42:40.883Z,6.40
2023-04-03T03:45:43.448Z,6.57
2023-04-03T03:48:45.526Z,6.77
2023-04-03T03:51:48.134Z,6.30
2023-04-03T03:54:50.067Z,5.93
2023-04-03T03:57:52.379Z,6.67
2023-04-03T04:00:59.189Z,5.70
2023-04-03T04:04:01.957Z,6.27
2023-04-03T04:07:04.737Z,6.47
2023-04-03T04:10:07.231Z,6.00
2023-04-03T04:13:09.227Z,6.27
2023-04-03T04:16:11.186Z,5.73
2023-04-03T04:19:16.097Z,6.83
2023-04-03T04:22:18.008Z,6.53
2023-04-03T04:25:19.906Z,6.47
2023-04-03T04:28:22.237Z,5.93
2023-04-03T04:31:24.408Z,6.20
2023-04-03T04:34:26.558Z,5.93
2023-04-03T04:37:28.549Z,5.77
2023-04-03T04:40:30.864Z,5.63
2023-04-03T04:43:32.805Z,5.80
2023-04-03T04:46:34.901Z,5.73
2023-04-03T04:49:37.129Z,7.27
2023-04-03T04:52:39.512Z,6.73
2023-04-03T04:55:41.427Z,6.80
2023-04-03T04:58:44.112Z,7.00
2023-04-03T05:01:46.155Z,6.63
2023-04-03T05:04:48.510Z,7.63
2023-04-03T05:07:50.555Z,7.97
2023-04-03T05:10:54.929Z,7.80
2023-04-03T05:13:58.104Z,7.47
2023-04-03T05:17:00.078Z,8.50
2023-04-03T05:20:02.384Z,8.03
2023-04-03T05:23:04.524Z,7.60
2023-04-03T05:26:07.153Z,9.13
2023-04-03T05:29:09.663Z,7.97
2023-04-03T05:32:12.542Z,8.13
2023-04-03T05:35:14.877Z,7.73
2023-04-03T05:38:16.837Z,8.10
2023-04-03T05:41:19.418Z,7.23
2023-04-03T05:44:21.393Z,7.70
2023-04-03T05:47:23.637Z,7.60
2023-04-03T05:50:26.036Z,8.13
2023-04-03T05:53:33.371Z,7.43
2023-04-03T05:56:35.350Z,8.33
2023-04-03T05:59:37.338Z,7.73
2023-04-03T06:02:39.694Z,6.90
2023-04-03T06:05:43.847Z,7.67
2023-04-03T06:08:45.763Z,6.53
2023-04-03T06:11:47.801Z,6.70
2023-04-03T06:14:49.813Z,6.87
2023-04-03T06:17:51.849Z,6.47
2023-04-03T06:20:53.862Z,6.60
2023-04-03T06:23:56.261Z,6.90
2023-04-03T06:26:58.492Z,6.57
2023-04-03T06:30:00.576Z,6.40
2023-04-03T06:33:02.499Z,6.60
2023-04-03T06:36:06.483Z,6.00
2023-04-03T06:39:08.756Z,6.67
2023-04-03T06:42:11.554Z,6.63
2023-04-03T06:45:13.532Z,6.20
2023-04-03T06:48:15.908Z,6.67
2023-04-03T06:51:27.188Z,6.27
2023-04-03T06:54:29.212Z,5.13
2023-04-03T06:57:31.252Z,6.17
2023-04-03T07:00:33.364Z,6.17
2023-04-03T07:03:35.636Z,5.23
2023-04-03T07:06:38.110Z,5.63
2023-04-03T07:09:39.968Z,4.57
2023-04-03T07:12:43.482Z,4.67
2023-04-03T07:15:45.432Z,5.40
2023-04-03T07:18:48.140Z,4.43
2023-04-03T07:21:50.029Z,4.43
2023-04-03T07:24:51.978Z,4.70
2023-04-03T07:27:55.925Z,4.30
2023-04-03T07:31:07.598Z,4.23
2023-04-03T07:34:09.720Z,4.53
2023-04-03T07:37:12.150Z,3.63
2023-04-03T07:40:14.210Z,4.30
2023-04-03T07:43:17.888Z,4.17
2023-04-03T07:46:20.106Z,4.40
2023-04-03T07:49:24.990Z,4.10
2023-04-03T07:52:27.024Z,4.20
2023-04-03T07:55:29.637Z,4.17
2023-04-03T07:58:31.777Z,4.10
2023-04-03T08:01:35.169Z,4.57
2023-04-03T08:04:37.222Z,3.80
2023-04-03T08:07:40.885Z,4.20
2023-04-03T08:10:43.094Z,3.57
2023-04-03T08:13:45.031Z,3.95
2023-04-03T08:16:48.432Z,4.17
2023-04-03T08:19:50.789Z,3.80
2023-04-03T08:22:52.683Z,4.20
2023-04-03T08:25:54.634Z,3.63
2023-04-03T08:28:56.799Z,3.60
2023-04-03T08:31:59.125Z,3.70
2023-04-03T08:35:01.184Z,3.27
2023-04-03T08:38:03.568Z,3.57
2023-04-03T08:41:17.326Z,3.50
2023-04-03T08:44:46.211Z,3.60
2023-04-03T08:48:03.532Z,3.20
2023-04-03T08:51:14.166Z,3.70
2023-04-03T08:54:26.093Z,3.43
2023-04-03T08:57:41.109Z,3.43
2023-04-03T09:00:53.236Z,3.70
2023-04-03T09:03:55.363Z,4.10
2023-04-03T09:07:03.898Z,3.50
2023-04-03T09:10:07.036Z,3.23
2023-04-03T09:13:33.691Z,3.10
2023-04-03T09:16:44.735Z,3.00
2023-04-03T09:20:09.982Z,3.23
2023-04-03T09:23:50.200Z,3.30
2023-04-03T09:27:00.986Z,3.27
2023-04-03T09:30:04.118Z,2.77
2023-04-03T09:33:08.540Z,3.40
2023-04-03T09:36:10.645Z,2.83
2023-04-03T09:39:18.279Z,3.40
2023-04-03T09:42:25.280Z,3.17
2023-04-03T09:45:37.647Z,2.70
2023-04-03T09:48:41.048Z,2.77
2023-04-03T09:51:43.414Z,2.40
2023-04-03T09:54:45.492Z,2.67
2023-04-03T09:57:48.222Z,3.17
2023-04-03T10:00:57.549Z,3.20
2023-04-03T10:04:20.112Z,3.20
2023-04-03T10:07:35.446Z,3.30
2023-04-03T10:10:38.691Z,3.17
2023-04-03T10:17:45.762Z,3.50
2023-04-03T10:20:53.012Z,2.67
2023-04-03T10:24:16.267Z,2.80
2023-04-03T10:27:49.097Z,3.00
2023-04-03T10:31:15.124Z,2.57
2023-04-03T10:34:26.879Z,2.43
2023-04-03T10:37:44.376Z,2.53
2023-04-03T10:40:49.213Z,2.20
2023-04-03T10:44:09.577Z,2.03
2023-04-03T10:47:21.704Z,2.53
2023-04-03T10:50:28.852Z,2.27
2023-04-03T10:53:39.658Z,2.77
2023-04-03T10:56:46.748Z,2.90
2023-04-03T10:59:56.143Z,3.07
2023-04-03T11:03:02.110Z,2.97
2023-04-03T11:06:07.805Z,2.67
2023-04-03T11:09:21.790Z,3.30
2023-04-03T11:12:34.345Z,3.50
2023-04-03T11:15:36.591Z,3.47
2023-04-03T11:18:43.692Z,3.37
2023-04-03T11:21:50.507Z,3.23
2023-04-03T11:25:10.603Z,3.37
2023-04-03T11:28:15.729Z,3.70
2023-04-03T11:31:47.384Z,3.67
2023-04-03T11:34:51.975Z,3.33
2023-04-03T11:37:54.808Z,3.83
2023-04-03T11:40:57.933Z,3.10
2023-04-03T11:44:06.948Z,2.60
2023-04-03T11:47:11.696Z,3.23
2023-04-03T11:50:38.960Z,3.47
2023-04-03T11:53:44.819Z,3.43
2023-04-03T11:56:47.898Z,3.40
2023-04-03T11:59:49.808Z,3.23
2023-04-03T12:02:54.814Z,3.27
2023-04-03T12:06:05.978Z,3.60
2023-04-03T12:09:29.192Z,2.60
2023-04-03T12:12:37.551Z,2.93
2023-04-03T12:15:42.542Z,3.33
2023-04-03T12:18:52.464Z,3.10
2023-04-03T12:21:59.792Z,2.93
2023-04-03T12:25:40.078Z,3.30
2023-04-03T12:28:45.505Z,3.10
2023-04-03T12:32:11.741Z,2.40
2023-04-03T12:35:35.612Z,2.70
2023-04-03T12:38:52.104Z,2.97
2023-04-03T12:42:11.730Z,2.63
2023-04-03T12:45:21.617Z,2.57
2023-04-03T12:48:29.620Z,2.47
2023-04-03T12:51:48.085Z,2.20
2023-04-03T12:54:50.902Z,2.37
2023-04-03T12:57:53.611Z,2.50
2023-04-03T13:01:11.853Z,2.70
2023-04-03T13:04:15.378Z,2.43
2023-04-03T13:07:51.337Z,2.40
2023-04-03T13:11:01.766Z,2.40
2023-04-03T13:14:07.311Z,2.40
2023-04-03T13:17:15.557Z,2.37
2023-04-03T13:20:30.412Z,2.20
2023-04-03T13:23:34.097Z,2.57
2023-04-03T13:26:36.594Z,2.10
2023-04-03T13:29:40.241Z,1.90
2023-04-03T13:32:45.537Z,2.37
2023-04-03T13:35:48.499Z,2.13
2023-04-03T13:39:22.909Z,2.20
2023-04-03T13:42:28.186Z,2.40
2023-04-03T13:45:31.579Z,2.10
2023-04-03T13:48:59.816Z,2.17
2023-04-03T13:52:07.987Z,2.03
2023-04-03T13:55:26.293Z,1.90
2023-04-03T13:58:30.662Z,2.00
2023-04-03T14:01:43.091Z,2.10
2023-04-03T14:04:59.626Z,2.40
2023-04-03T14:08:03.251Z,2.00
2023-04-03T14:11:05.311Z,2.37
2023-04-03T14:14:14.554Z,1.90
2023-04-03T14:17:24.780Z,2.20
2023-04-03T14:20:28.053Z,2.07
2023-04-03T14:23:30.698Z,2.40
2023-04-03T14:26:32.593Z,2.37
2023-04-03T14:29:34.734Z,2.03
2023-04-03T14:32:36.998Z,2.03
2023-04-03T14:35:39.020Z,2.07
2023-04-03T14:38:41.503Z,6.97
2023-04-03T14:41:44.315Z,2.07
2023-04-03T14:44:46.661Z,1.93
2023-04-03T14:47:51.711Z,1.53
2023-04-03T14:51:04.569Z,1.40
2023-04-03T14:54:14.364Z,2.43
2023-04-03T14:57:17.569Z,3.00
2023-04-03T15:00:22.347Z,2.10
2023-04-03T15:03:24.822Z,1.80
2023-04-03T15:06:27.508Z,1.67
2023-04-03T15:09:30.327Z,2.23
2023-04-03T15:12:32.279Z,2.23
2023-04-03T15:15:35.675Z,1.87
2023-04-03T15:18:39.693Z,2.23
2023-04-03T15:21:41.848Z,2.37
2023-04-03T15:24:44.764Z,2.20
2023-04-03T15:27:46.653Z,2.40
2023-04-03T15:30:48.699Z,2.40
2023-04-03T15:33:50.675Z,2.70
2023-04-03T15:36:55.746Z,1.93
2023-04-03T15:39:58.216Z,2.30
2023-04-03T15:43:00.173Z,2.27
2023-04-03T15:46:02.740Z,2.40
2023-04-03T15:49:04.882Z,2.67
2023-04-03T15:52:06.952Z,2.37
2023-04-03T15:55:09.688Z,2.80
2023-04-03T15:58:12.320Z,2.07
2023-04-03T16:01:14.683Z,2.13
2023-04-03T16:04:18.060Z,2.20
2023-04-03T16:07:22.025Z,1.80
2023-04-03T16:10:24.123Z,2.47
2023-04-03T16:13:26.308Z,2.30
2023-04-03T16:16:28.595Z,2.27
2023-04-03T16:19:31.405Z,2.27
2023-04-03T16:22:34.052Z,2.33
2023-04-03T16:25:36.483Z,2.03
2023-04-03T16:28:38.481Z,1.77
2023-04-03T16:31:41.289Z,2.23
2023-04-03T16:34:43.240Z,1.57
2023-04-03T16:37:45.908Z,1.93
2023-04-03T16:40:47.862Z,2.23
2023-04-03T16:43:51.187Z,1.50
2023-04-03T16:46:54.113Z,1.90
2023-04-03T16:49:56.433Z,1.53
2023-04-03T16:52:58.495Z,1.73
2023-04-03T16:56:00.731Z,1.90
2023-04-03T16:59:02.750Z,1.70
2023-04-03T17:02:04.840Z,2.10
2023-04-03T17:05:07.455Z,2.20
2023-04-03T17:08:10.058Z,2.73
2023-04-03T17:11:12.114Z,2.67
2023-04-03T17:14:14.421Z,2.07
2023-04-03T17:17:21.103Z,2.87
2023-04-03T17:20:23.660Z,2.03
2023-04-03T17:23:27.493Z,2.10
2023-04-03T17:26:29.625Z,2.00
2023-04-03T17:29:38.587Z,2.13
2023-04-03T17:32:41.236Z,3.17
2023-04-03T17:35:43.887Z,2.73
2023-04-03T17:38:49.060Z,2.20
2023-04-03T17:41:51.113Z,2.47
2023-04-03T17:44:53.069Z,2.57
2023-04-03T17:47:57.472Z,2.87
2023-04-03T17:51:00.542Z,1.80
2023-04-03T17:54:03.559Z,1.97
2023-04-03T17:57:06.155Z,2.17
2023-04-03T18:00:09.623Z,2.20
2023-04-03T18:03:11.674Z,2.10
2023-04-03T18:06:16.846Z,2.60
2023-04-03T18:09:22.386Z,2.30
2023-04-03T18:12:24.621Z,2.47
2023-04-03T18:15:27.129Z,2.20
2023-04-03T18:18:29.112Z,2.20
2023-04-03T18:21:31.190Z,2.60
2023-04-03T18:24:34.346Z,2.17
2023-04-03T18:27:36.405Z,2.50
2023-04-03T18:30:39.030Z,2.37
2023-04-03T18:33:41.204Z,2.40
2023-04-03T18:36:43.076Z,3.60
2023-04-03T18:39:45.644Z,2.70
2023-04-03T18:42:47.612Z,3.10
2023-04-03T18:45:50.415Z,2.20
2023-04-03T18:48:54.491Z,2.20
2023-04-03T18:51:56.612Z,2.57
2023-04-03T18:54:58.821Z,2.43
2023-04-03T18:58:01.531Z,2.07
2023-04-03T19:01:04.187Z,2.33
2023-04-03T19:04:07.301Z,2.63
2023-04-03T19:07:10.573Z,2.07
2023-04-03T19:10:20.297Z,2.77
2023-04-03T19:13:22.284Z,2.53
2023-04-03T19:16:25.661Z,2.90
2023-04-03T19:19:27.608Z,2.23
2023-04-03T19:22:30.897Z,2.47
2023-04-03T19:25:32.835Z,2.70
2023-04-03T19:28:36.352Z,2.40
2023-04-03T19:31:40.515Z,2.50
2023-04-03T19:34:44.839Z,2.83
2023-04-03T19:37:51.175Z,2.83
2023-04-03T19:40:53.479Z,2.20
2023-04-03T19:43:57.886Z,2.80
2023-04-03T19:47:01.304Z,2.90
2023-04-03T19:50:06.264Z,2.67
2023-04-03T19:53:11.513Z,2.70
2023-04-03T19:56:16.615Z,2.73
2023-04-03T19:59:19.247Z,2.80
2023-04-03T20:02:21.872Z,2.73
2023-04-03T20:05:25.525Z,2.50
2023-04-03T20:08:29.197Z,2.67
2023-04-03T20:11:31.363Z,2.70
2023-04-03T20:14:33.982Z,2.30
2023-04-03T20:17:36.639Z,2.70
2023-04-03T20:20:42.572Z,2.53
2023-04-03T20:23:52.039Z,2.60
2023-04-03T20:26:57.177Z,3.53
2023-04-03T20:30:01.680Z,7.23
2023-04-03T20:33:05.270Z,3.00
2023-04-03T20:36:09.548Z,3.10
2023-04-03T20:39:11.984Z,3.20
2023-04-03T20:42:15.652Z,2.60
2023-04-03T20:45:21.906Z,2.67
2023-04-03T20:48:24.020Z,3.07
2023-04-03T20:51:27.727Z,3.10
2023-04-03T20:54:30.825Z,6.13
2023-04-03T20:57:34.616Z,5.20
2023-04-03T21:00:38.326Z,3.40
2023-04-03T21:03:40.647Z,3.07
2023-04-03T21:07:20.425Z,2.60
2023-04-03T21:11:00.337Z,2.77
2023-04-03T21:14:40.198Z,5.87
2023-04-03T21:18:00.711Z,4.00
2023-04-03T21:21:03.676Z,2.90
2023-04-03T21:24:10.074Z,2.63
2023-04-03T21:27:12.257Z,3.20
2023-04-03T21:30:16.223Z,3.17
2023-04-03T21:33:18.378Z,2.73
2023-04-03T21:36:20.359Z,3.03
2023-04-03T21:39:23.473Z,2.70
2023-04-03T21:42:26.267Z,2.87
2023-04-03T21:45:28.571Z,2.87
2023-04-03T21:48:31.102Z,2.90
2023-04-03T21:51:33.631Z,2.77
2023-04-03T21:54:36.246Z,2.70
2023-04-03T21:57:39.556Z,3.20
2023-04-03T22:00:42.430Z,3.07
2023-04-03T22:03:45.761Z,3.20
2023-04-03T22:06:48.291Z,2.67
2023-04-03T22:09:50.261Z,3.13
2023-04-03T22:12:52.156Z,3.20
2023-04-03T22:15:54.171Z,3.73
2023-04-03T22:18:59.641Z,3.00
2023-04-03T22:22:04.171Z,3.33
2023-04-03T22:25:06.482Z,3.00
2023-04-03T22:28:08.547Z,4.50
2023-04-03T22:31:14.449Z,3.90
2023-04-03T22:34:17.590Z,4.30
2023-04-03T22:37:19.536Z,3.70
2023-04-03T22:40:21.533Z,4.03
2023-04-03T22:43:23.628Z,3.40
2023-04-03T22:46:26.693Z,3.77
2023-04-03T22:49:29.372Z,3.00
2023-04-03T22:52:31.738Z,3.00
2023-04-03T22:55:33.649Z,2.97
2023-04-03T22:58:36.502Z,3.30
2023-04-03T23:01:39.519Z,3.00
2023-04-03T23:04:42.052Z,2.70
2023-04-03T23:07:43.973Z,3.17
2023-04-03T23:10:46.369Z,3.07
2023-04-03T23:13:48.248Z,3.03
2023-04-03T23:16:50.286Z,2.63
2023-04-03T23:19:52.654Z,3.10
2023-04-03T23:22:54.649Z,3.00
2023-04-03T23:26:01.677Z,3.30
2023-04-03T23:29:03.764Z,2.53
2023-04-03T23:32:06.291Z,2.80
2023-04-03T23:35:08.771Z,2.90
2023-04-03T23:38:11.267Z,2.60
2023-04-03T23:41:13.325Z,3.10
2023-04-03T23:44:15.302Z,2.97
2023-04-03T23:47:17.486Z,2.83
2023-04-03T23:50:19.376Z,2.50
2023-04-03T23:53:21.500Z,3.03
2023-04-03T23:56:23.430Z,3.10
2023-04-03T23:59:27.030Z,3.30
